Terminal Aerodrome Forecast
Issued by NWS Grand Junction, CO

Home | Current Version | Previous Version | Text Only | Print | Product List | Glossary On
Versions: 1 2 3 4 5 6 7 8 9 10 11 12 13
000
FTUS45 KGJT 301739
TAFGJT
TAF
KGJT 301739Z 3018/3118 11010KT P6SM SCT080 BKN120
     FM302000 17012G20KT P6SM SCT060 BKN120
     FM310300 12008KT P6SM -SHRA SCT020 BKN040
     FM310500 14015G25KT P6SM -SHRA SCT020 BKN040
     FM311500 16010KT P6SM VCSH SCT030 BKN060=

USA.gov is the U.S. government's official web portal to all federal, state and local government web resources and services.